Colerain, North Carolina
Current Conditions -  °F | °C
As of 10:15 AM on Wednesday 22 Oct 2014 (Local Time) from KEDE Reporting Station
Overcast Overcast  
Wind Chill: 55°   Ceiling: 1700
Heat Index: 55°   Visibility: 10mi
Dew Point: 50°   Wind: 10mph
Humidity: 84%   Direction: 300°WNW
Pressure: 29.89"   Gusts: 17mph
Location:  36.2°N, 76.77°W
Report Text: KEDE 221415Z AUTO 30009G15KT 10SM OVC017 13/10 A2989 RMK AO2 T01260100
Loading
Personal Weather Stations






























Interactive Weather Map
Tropical Storm Tracking
New forecast layout! Learn more

10-Day Weather Forecast

Advertisements
Track Severe Weather on mobile